Zuebak Airstrip

AYZZ · Morobe, Papua-Neuguinea

METAR-Geschichte AYZZ · Zuebak Airstrip

Unten siehst du die METARs der letzten paar Tage. Wähle ein Jahr, um ältere METARs ab dem Jahr 2007 zu durchsuchen.

4. Dezember 2022

Uhrzeit Code Wetter Temp. Sichtweite Wolkendecke Wind METAR/SPECI
11:00
V
31 °C 10 km+ - Var Var 3 kt METAR AYNZ 040100Z VRB03KT 9999 HZ FEW020 SCT070 31/23 Q1006
11:00
V
31 °C 10 km+ - Var Var 3 kt METAR AYNZ 040100Z VRB03KT 9999 HZ FEW020 SCT070 31/23 Q1006=
09:00
V
29 °C 10 km+ - 240° 240° 5 kt METAR AYNZ 032300Z 24005KT 9999 HZ FEW010 SCT070 29/24 Q1007
08:00
V
26 °C 10 km+ - 240° 240° 8 kt METAR AYNZ 032200Z 24008KT 9999 HZ FEW005 SCT070 26/23 Q1007
07:00
V
25 °C 10 km+ - Var Var 5 kt METAR AYNZ 032100Z VRB05KT 9999 HZ FEW005 SCT070 25/23 Q1007
06:00
V
24 °C 10 km+ - Var Var 5 kt METAR AYNZ 032000Z VRB05KT 9999 FEW005 SCT040 24/22 Q1005=

3. Dezember 2022

Uhrzeit Code Wetter Temp. Sichtweite Wolkendecke Wind METAR/SPECI
17:00
V
30 °C 10 km+ 4.000 ft 110° 110° 5 kt METAR AYNZ 030700Z 11005KT 9999 HZ SCT035 BKN040 30/23 Q1003
15:00
V
31 °C 10 km+ 5.000 ft Var Var 3 kt METAR AYNZ 030500Z VRB03KT 9999 SCT030 BKN050 31/23 Q1003
13:00
V
30 °C 10 km+ 9.000 ft Var Var 3 kt METAR AYNZ 030300Z VRB03KT 9999 HZ FEW025 OVC090 30/22 Q1005
12:00
V
28 °C 10 km+ 9.000 ft Var Var 3 kt METAR AYNZ 030200Z VRB03KT 9999 HZ FEW015 OVC090 28/23 Q1006=
11:00
V
27 °C 10 km+ 9.000 ft Var Var 3 kt METAR AYNZ 030100Z VRB03KT 9999 HZ SCT010 OVC090 27/23 Q1007=
08:00
V
24 °C 10 km+ 9.000 ft Var Var 5 kt METAR AYNZ 022200Z VRB05KT 9999 FEW010 OVC090 24/22 Q1008=
07:00
V
24 °C 10 km+ 9.000 ft Var Var 5 kt METAR AYNZ 022100Z VRB05KT 9999 FEW010 BKN090 24/22 Q1006
06:00
V
24 °C 10 km+ 9.000 ft 260° 260° 5 kt METAR AYNZ 022000Z 26005KT 9999 FEW005 OVC090 24/22 Q1006
05:00
V
24 °C 10 km+ - 230° 230° 10 kt METAR AYNZ 021900Z 23010KT 9999 FEW005 SCT025 SCT050 24/22 Q1005

2. Dezember 2022

Uhrzeit Code Wetter Temp. Sichtweite Wolkendecke Wind METAR/SPECI
18:00
V
30 °C 10 km+ 7.000 ft 100° 100° 10 - 20 kt METAR AYNZ 020800Z 10010G20KT 9999 HZ SCT050 BKN070 30/23 Q1003 RMK
17:00
V
31 °C 10 km+ - 100° 100° 15 - 25 kt METAR AYNZ 020700Z 10015G25KT 9999 HZ SCT050 SCT070 31/22 Q1001 RMK
16:00
V
33 °C 10 km+ - 110° 110° 10 - 25 kt METAR AYNZ 020600Z 11010G25KT 9999 HZ SCT070 33/21 Q1000 RMK
14:00
V
35 °C 10 km+ - 160° 160° 7 kt METAR AYNZ 020400Z 16007KT 9999 HZ SCT070 35/21 Q1000 RMK
13:00
V
35 °C 10 km+ - Var Var 5 kt METAR AYNZ 020300Z VRB05KT 9999 HZ SCT070 35/22 Q1002=
12:00
V
33 °C 10 km+ - 260° 260° 5 - 10 kt METAR AYNZ 020200Z 26005G10KT 9999 SCT020 SCT040 33/23 Q1004
11:00
V
32 °C 10 km+ - 260° 260° 10 kt METAR AYNZ 020100Z 26010KT 9999 HZ SCT020 SCT040 32/24 Q1005
10:00
V
31 °C 10 km+ - 270° 270° 8 kt METAR AYNZ 020000Z 27008KT 9999 HZ FEW020 SCT040 31/24 Q1006
09:00
V
29 °C 10 km+ - 270° 270° 8 kt METAR AYNZ 012300Z 27008KT 9999 HZ FEW010 SCT040 29/23 Q1006
08:00
V
26 °C 10 km+ - 240° 240° 4 kt METAR AYNZ 012200Z 24004KT 9999 HZ FEW010 SCT030 26/23 Q1006
07:00
V
25 °C 10 km+ - 170° 170° 3 kt METAR AYNZ 012100Z 17003KT 9999 HZ FEW010 SCT030 25/22 Q1006=
06:00
V
24 °C 10 km+ - 220° 220° 3 kt METAR AYNZ 012000Z 22003KT 9999 HZ FEW010 SCT030 24/22 Q1005 RMK
05:00
V
24 °C 10 km+ - 230° 230° 6 kt METAR AYNZ 011900Z 23006KT 9999 FEW010 SCT030 24/22 Q1005

Wir und Dritte verfolgen dein Internetverhalten auf unserer Website mit Cookies. Wenn du fortfährst, gehen wir davon aus, dass du mit unserer Cookie-Richtlinie einverstanden bist.